createdAt,value
2022-09-12T00:01:13.619Z,80.63
2022-09-12T00:04:52.220Z,80.73
2022-09-12T00:08:30.129Z,80.69
2022-09-12T00:12:08.417Z,80.61
2022-09-12T00:15:45.466Z,80.77
2022-09-12T00:19:22.873Z,80.81
2022-09-12T00:23:01.230Z,80.72
2022-09-12T00:26:39.245Z,80.54
2022-09-12T00:30:16.701Z,80.24
2022-09-12T00:33:57.467Z,79.80
2022-09-12T00:37:35.493Z,79.53
2022-09-12T00:41:31.863Z,79.17
2022-09-12T00:45:23.328Z,78.90
2022-09-12T00:48:56.077Z,78.78
2022-09-12T00:52:57.057Z,78.61
2022-09-12T00:56:36.919Z,78.38
2022-09-12T01:00:17.639Z,77.90
2022-09-12T01:03:54.590Z,77.34
2022-09-12T01:07:39.863Z,76.81
2022-09-12T01:11:21.094Z,75.77
2022-09-12T01:14:58.709Z,74.69
2022-09-12T01:18:50.683Z,73.78
2022-09-12T01:22:28.338Z,72.74
2022-09-12T01:26:11.274Z,71.61
2022-09-12T01:30:16.536Z,70.21
2022-09-12T01:34:16.813Z,68.87
2022-09-12T01:38:04.791Z,67.91
2022-09-12T01:42:02.410Z,66.87
2022-09-12T01:46:00.713Z,65.57
2022-09-12T01:50:01.895Z,64.56
2022-09-12T01:53:48.332Z,63.59
2022-09-12T01:57:32.514Z,62.64
2022-09-12T02:01:27.743Z,61.47
2022-09-12T02:05:11.429Z,60.38
2022-09-12T02:08:57.812Z,59.82
2022-09-12T02:12:50.183Z,59.42
2022-09-12T02:16:37.283Z,58.82
2022-09-12T02:20:43.988Z,57.95
2022-09-12T02:24:21.815Z,57.21
2022-09-12T02:28:07.106Z,56.86
2022-09-12T02:31:52.266Z,56.28
2022-09-12T02:35:33.207Z,55.79
2022-09-12T02:39:10.186Z,55.30
2022-09-12T02:42:47.631Z,54.76
2022-09-12T02:46:41.137Z,54.63
2022-09-12T02:50:18.566Z,54.37
2022-09-12T02:53:56.366Z,53.95
2022-09-12T02:57:33.925Z,53.68
2022-09-12T03:01:26.827Z,53.07
2022-09-12T03:05:14.081Z,52.81
2022-09-12T03:08:55.930Z,52.10
2022-09-12T03:12:54.723Z,51.79
2022-09-12T03:17:05.233Z,51.63
2022-09-12T03:20:57.842Z,51.41
2022-09-12T03:24:43.379Z,51.17
2022-09-12T03:28:23.128Z,51.05
2022-09-12T03:32:01.056Z,50.50
2022-09-12T03:35:39.658Z,50.09
2022-09-12T03:39:17.614Z,49.86
2022-09-12T03:42:55.624Z,49.65
2022-09-12T03:46:33.744Z,49.50
2022-09-12T03:50:11.237Z,48.81
2022-09-12T03:53:49.268Z,48.45
2022-09-12T03:57:28.072Z,48.32
2022-09-12T04:01:14.476Z,48.12
2022-09-12T04:04:52.379Z,47.96
2022-09-12T04:08:29.970Z,47.76
2022-09-12T04:12:07.367Z,47.37
2022-09-12T04:15:56.963Z,47.28
2022-09-12T04:19:35.069Z,47.18
2022-09-12T04:23:11.999Z,46.80
2022-09-12T04:26:49.364Z,45.89
2022-09-12T04:30:28.276Z,46.03
2022-09-12T04:34:06.914Z,45.74
2022-09-12T04:37:44.038Z,45.62
2022-09-12T04:41:27.962Z,45.37
2022-09-12T04:45:06.885Z,45.21
2022-09-12T04:48:44.981Z,44.98
2022-09-12T04:52:22.997Z,45.00
2022-09-12T04:56:05.249Z,44.74
2022-09-12T04:59:43.028Z,44.46
2022-09-12T05:03:20.096Z,44.66
2022-09-12T05:06:57.053Z,44.61
2022-09-12T05:10:35.881Z,44.56
2022-09-12T05:14:13.273Z,44.33
2022-09-12T05:17:50.211Z,44.41
2022-09-12T05:21:46.905Z,43.52
2022-09-12T05:25:05.145Z,43.30
2022-09-12T05:28:43.551Z,43.40
2022-09-12T05:32:21.797Z,43.06
2022-09-12T05:35:59.346Z,42.90
2022-09-12T05:39:37.250Z,43.00
2022-09-12T05:43:14.990Z,42.77
2022-09-12T05:46:53.017Z,42.37
2022-09-12T05:50:30.974Z,42.59
2022-09-12T05:54:11.374Z,42.19
2022-09-12T05:57:48.565Z,42.03
2022-09-12T06:01:28.033Z,41.74
2022-09-12T06:05:08.607Z,41.31
2022-09-12T06:08:49.203Z,41.41
2022-09-12T06:12:29.708Z,41.26
2022-09-12T06:16:09.944Z,40.85
2022-09-12T06:19:47.444Z,40.53
2022-09-12T06:23:25.267Z,40.64
2022-09-12T06:27:02.976Z,40.47
2022-09-12T06:30:40.596Z,40.49
2022-09-12T06:34:18.400Z,40.38
2022-09-12T06:37:56.200Z,40.18
2022-09-12T06:41:34.838Z,39.74
2022-09-12T06:45:15.293Z,39.76
2022-09-12T06:48:55.793Z,39.68
2022-09-12T06:52:32.955Z,39.90
2022-09-12T06:56:17.268Z,39.75
2022-09-12T06:59:57.609Z,39.65
2022-09-12T07:03:36.994Z,39.59
2022-09-12T07:07:14.255Z,39.65
2022-09-12T07:10:51.562Z,39.50
2022-09-12T07:14:29.082Z,39.20
2022-09-12T07:18:07.561Z,38.89
2022-09-12T07:21:45.982Z,38.92
2022-09-12T07:25:23.479Z,38.94
2022-09-12T07:29:25.155Z,39.15
2022-09-12T07:32:59.001Z,39.31
2022-09-12T07:36:37.723Z,39.13
2022-09-12T07:40:15.682Z,39.12
2022-09-12T07:43:55.208Z,39.24
2022-09-12T07:47:33.504Z,39.10
2022-09-12T07:51:12.501Z,39.31
2022-09-12T07:54:50.266Z,39.32
2022-09-12T07:58:30.387Z,39.26
2022-09-12T08:02:16.813Z,39.32
2022-09-12T08:05:55.044Z,40.55
2022-09-12T08:09:33.002Z,41.56
2022-09-12T08:13:12.183Z,43.16
2022-09-12T08:16:49.335Z,43.62
2022-09-12T08:20:28.518Z,44.67
2022-09-12T08:24:07.752Z,45.57
2022-09-12T08:27:46.351Z,46.81
2022-09-12T08:31:26.534Z,47.28
2022-09-12T08:35:06.141Z,47.64
2022-09-12T08:38:45.990Z,48.28
2022-09-12T08:42:52.887Z,48.45
2022-09-12T08:46:42.424Z,49.04
2022-09-12T08:50:23.145Z,49.31
2022-09-12T08:54:04.696Z,49.76
2022-09-12T08:57:43.381Z,50.51
2022-09-12T09:01:31.025Z,50.70
2022-09-12T09:05:30.333Z,51.10
2022-09-12T09:09:19.251Z,51.52
2022-09-12T09:13:06.184Z,52.34
2022-09-12T09:16:46.730Z,52.21
2022-09-12T09:20:43.904Z,52.37
2022-09-12T09:24:28.406Z,52.68
2022-09-12T09:28:13.879Z,52.69
2022-09-12T09:32:00.588Z,52.46
2022-09-12T09:35:52.406Z,52.73
2022-09-12T09:39:36.831Z,52.43
2022-09-12T09:43:22.206Z,52.15
2022-09-12T09:47:01.702Z,51.90
2022-09-12T09:50:39.933Z,51.84
2022-09-12T09:54:23.482Z,51.71
2022-09-12T09:58:01.397Z,51.25
2022-09-12T10:01:48.022Z,50.91
2022-09-12T10:05:26.099Z,50.44
2022-09-12T10:09:15.564Z,50.53
2022-09-12T10:13:08.483Z,50.73
2022-09-12T10:16:52.473Z,50.85
2022-09-12T10:20:41.652Z,50.58
2022-09-12T10:24:28.078Z,50.42
2022-09-12T10:28:20.717Z,50.13
2022-09-12T10:32:02.204Z,50.13
2022-09-12T10:35:47.972Z,49.99
2022-09-12T10:39:26.447Z,49.74
2022-09-12T10:43:18.270Z,49.81
2022-09-12T10:46:59.107Z,49.74
2022-09-12T10:50:43.998Z,49.53
2022-09-12T10:54:26.308Z,49.45
2022-09-12T10:58:04.484Z,49.33
2022-09-12T11:01:47.021Z,49.07
2022-09-12T11:05:53.134Z,49.25
2022-09-12T11:09:40.174Z,49.58
2022-09-12T11:13:36.822Z,49.26
2022-09-12T11:17:36.344Z,49.09
2022-09-12T11:21:16.997Z,49.22
2022-09-12T11:25:13.369Z,49.44
2022-09-12T11:28:57.904Z,49.67
2022-09-12T11:33:09.638Z,49.21
2022-09-12T11:37:02.624Z,49.02
2022-09-12T11:40:43.532Z,48.51
2022-09-12T11:44:40.287Z,48.71
2022-09-12T11:48:30.027Z,48.81
2022-09-12T11:52:20.445Z,49.08
2022-09-12T11:56:08.342Z,48.94
2022-09-12T12:00:01.214Z,48.84
2022-09-12T12:03:44.203Z,48.14
2022-09-12T12:07:23.017Z,47.61
2022-09-12T12:11:03.758Z,47.32
2022-09-12T12:14:46.644Z,47.19
2022-09-12T12:18:32.412Z,47.36
2022-09-12T12:22:24.809Z,46.72
2022-09-12T12:26:04.013Z,46.44
2022-09-12T12:29:46.097Z,46.29
2022-09-12T12:33:27.010Z,45.83
2022-09-12T12:37:20.116Z,45.52
2022-09-12T12:41:43.136Z,45.46
2022-09-12T12:45:27.145Z,45.71
2022-09-12T12:49:28.454Z,45.77
2022-09-12T12:53:28.021Z,45.99
2022-09-12T12:57:20.496Z,45.79
2022-09-12T13:01:13.513Z,45.41
2022-09-12T13:04:52.801Z,45.75
2022-09-12T13:08:33.235Z,45.40
2022-09-12T13:12:18.977Z,45.48
2022-09-12T13:15:57.796Z,45.38
2022-09-12T13:19:38.112Z,45.66
2022-09-12T13:23:32.091Z,45.55
2022-09-12T13:27:25.542Z,45.40
2022-09-12T13:31:26.680Z,44.88
2022-09-12T13:35:25.887Z,44.92
2022-09-12T13:39:15.781Z,44.92
2022-09-12T13:43:09.418Z,44.87
2022-09-12T13:46:49.903Z,45.05
2022-09-12T13:50:37.514Z,45.20
2022-09-12T13:54:23.838Z,45.62
2022-09-12T13:58:07.657Z,45.39
2022-09-12T14:01:47.506Z,45.91
2022-09-12T14:05:26.985Z,45.04
2022-09-12T14:09:14.042Z,43.75
2022-09-12T14:12:51.595Z,40.08
2022-09-12T14:16:32.653Z,36.56
2022-09-12T14:20:16.607Z,34.64
2022-09-12T14:23:54.882Z,31.87
2022-09-12T14:27:40.913Z,30.85
2022-09-12T14:31:38.662Z,29.16
2022-09-12T14:35:20.446Z,28.44
2022-09-12T14:39:04.632Z,27.39
2022-09-12T14:42:42.726Z,28.62
2022-09-12T14:46:27.111Z,30.24
2022-09-12T14:50:16.318Z,31.51
2022-09-12T14:53:54.745Z,32.97
2022-09-12T14:57:40.722Z,34.26
2022-09-12T15:01:19.574Z,35.42
2022-09-12T15:05:09.405Z,36.77
2022-09-12T15:08:48.493Z,38.00
2022-09-12T15:12:27.163Z,39.42
2022-09-12T15:16:04.932Z,39.93
2022-09-12T15:19:43.002Z,41.48
2022-09-12T15:23:41.571Z,42.77
2022-09-12T15:27:20.191Z,44.10
2022-09-12T15:31:05.468Z,45.64
2022-09-12T15:34:43.407Z,46.40
2022-09-12T15:38:26.160Z,48.32
2022-09-12T15:42:06.056Z,49.12
2022-09-12T15:45:45.017Z,50.22
2022-09-12T15:49:23.041Z,51.53
2022-09-12T15:53:00.911Z,52.51
2022-09-12T15:56:38.705Z,52.92
2022-09-12T16:00:18.767Z,54.06
2022-09-12T16:03:57.152Z,54.54
2022-09-12T16:07:35.410Z,55.15
2022-09-12T16:11:25.973Z,56.15
2022-09-12T16:15:08.311Z,56.42
2022-09-12T16:18:41.225Z,56.86
2022-09-12T16:22:19.541Z,57.46
2022-09-12T16:26:01.585Z,57.90
2022-09-12T16:29:39.255Z,58.30
2022-09-12T16:33:17.051Z,58.79
2022-09-12T16:36:54.134Z,59.15
2022-09-12T16:40:32.349Z,59.77
2022-09-12T16:44:10.910Z,60.03
2022-09-12T16:47:48.678Z,60.65
2022-09-12T16:51:33.157Z,61.03
2022-09-12T16:55:10.322Z,61.86
2022-09-12T16:58:47.867Z,61.96
2022-09-12T17:02:24.837Z,62.49
2022-09-12T17:06:08.528Z,62.52
2022-09-12T17:09:47.985Z,62.98
2022-09-12T17:13:36.698Z,63.50
2022-09-12T17:17:23.903Z,63.69
2022-09-12T17:21:02.258Z,64.56
2022-09-12T17:24:40.320Z,65.21
2022-09-12T17:28:18.951Z,65.43
2022-09-12T17:31:56.969Z,65.48
2022-09-12T17:35:35.479Z,66.14
2022-09-12T17:39:14.345Z,66.95
2022-09-12T17:42:52.365Z,67.46
2022-09-12T17:46:34.384Z,68.01
2022-09-12T17:50:30.811Z,68.81
2022-09-12T17:54:16.207Z,68.66
2022-09-12T17:57:53.316Z,68.92
2022-09-12T18:01:30.824Z,69.64
2022-09-12T18:05:09.457Z,69.54
2022-09-12T18:08:47.265Z,69.63
2022-09-12T18:12:25.611Z,69.88
2022-09-12T18:16:08.408Z,70.24
2022-09-12T18:19:49.275Z,70.16
2022-09-12T18:23:31.384Z,71.95
2022-09-12T18:27:09.051Z,72.07
2022-09-12T18:30:47.328Z,71.85
2022-09-12T18:34:25.454Z,71.67
2022-09-12T18:38:02.648Z,71.83
2022-09-12T18:41:41.023Z,72.04
2022-09-12T18:45:19.410Z,72.55
2022-09-12T18:48:59.151Z,72.75
2022-09-12T18:52:37.166Z,72.77
2022-09-12T18:56:14.681Z,73.14
2022-09-12T18:59:52.721Z,73.12
2022-09-12T19:03:30.583Z,72.94
2022-09-12T19:07:09.273Z,73.16
2022-09-12T19:10:56.239Z,73.34
2022-09-12T19:14:33.697Z,73.41
2022-09-12T19:18:10.984Z,73.70
2022-09-12T19:21:48.907Z,73.66
2022-09-12T19:25:26.984Z,73.78
2022-09-12T19:29:08.632Z,74.46
2022-09-12T19:32:46.074Z,74.86
2022-09-12T19:36:44.306Z,75.35
2022-09-12T19:40:22.027Z,75.47
2022-09-12T19:44:02.527Z,76.32
2022-09-12T19:47:42.913Z,76.11
2022-09-12T19:51:18.073Z,77.20
2022-09-12T19:54:55.732Z,76.72
2022-09-12T19:58:41.638Z,77.02
2022-09-12T20:02:19.489Z,76.71
2022-09-12T20:06:05.304Z,77.71
2022-09-12T20:09:42.604Z,79.64
2022-09-12T20:13:21.241Z,80.08
2022-09-12T20:16:59.096Z,79.92
2022-09-12T20:20:37.355Z,80.87
2022-09-12T20:24:14.979Z,81.67
2022-09-12T20:28:00.139Z,82.23
2022-09-12T20:31:30.592Z,83.67
2022-09-12T20:35:09.399Z,84.38
2022-09-12T20:38:51.856Z,83.42
2022-09-12T20:42:31.375Z,83.01
2022-09-12T20:46:11.294Z,82.90
2022-09-12T20:49:48.839Z,81.86
2022-09-12T20:53:30.556Z,81.50
2022-09-12T20:57:10.293Z,82.26
2022-09-12T21:00:48.117Z,81.56
2022-09-12T21:04:25.066Z,82.40
2022-09-12T21:08:02.776Z,82.04
2022-09-12T21:11:40.654Z,81.75
2022-09-12T21:15:17.767Z,81.56
2022-09-12T21:18:58.484Z,81.57
2022-09-12T21:22:36.197Z,81.41
2022-09-12T21:26:13.958Z,81.30
2022-09-12T21:29:52.949Z,81.21
2022-09-12T21:33:30.664Z,81.00
2022-09-12T21:37:08.649Z,81.00
2022-09-12T21:40:47.302Z,80.82
2022-09-12T21:44:26.216Z,81.06
2022-09-12T21:48:05.464Z,81.07
2022-09-12T21:51:42.916Z,80.99
2022-09-12T21:55:20.115Z,80.86
2022-09-12T21:58:57.155Z,80.69
2022-09-12T22:02:34.253Z,81.42
2022-09-12T22:06:11.910Z,83.50
2022-09-12T22:09:50.370Z,85.59
2022-09-12T22:13:27.886Z,88.76
2022-09-12T22:17:09.677Z,87.42
2022-09-12T22:20:46.848Z,87.66
2022-09-12T22:24:25.261Z,87.10
2022-09-12T22:28:02.915Z,87.16
2022-09-12T22:31:40.721Z,86.45
2022-09-12T22:35:19.656Z,85.84
2022-09-12T22:38:57.854Z,85.42
2022-09-12T22:42:36.066Z,84.97
2022-09-12T22:46:13.853Z,84.49
2022-09-12T22:49:51.950Z,84.50
2022-09-12T22:53:29.664Z,84.93
2022-09-12T22:57:07.624Z,85.13
2022-09-12T23:00:47.605Z,84.79
2022-09-12T23:04:25.513Z,85.39
2022-09-12T23:08:03.820Z,85.44
2022-09-12T23:11:42.662Z,85.78
2022-09-12T23:15:19.808Z,85.89
2022-09-12T23:18:58.645Z,85.64
2022-09-12T23:22:37.073Z,85.41
2022-09-12T23:26:20.486Z,85.14
2022-09-12T23:30:01.366Z,84.88
2022-09-12T23:33:36.405Z,84.96
2022-09-12T23:37:13.478Z,85.05
2022-09-12T23:40:51.052Z,84.56
2022-09-12T23:44:28.868Z,84.74
2022-09-12T23:48:06.162Z,84.80
2022-09-12T23:51:43.444Z,84.67
2022-09-12T23:55:21.637Z,85.20
2022-09-12T23:58:59.793Z,85.15
